Time,TemperatureF,DewpointF,PressureIn,WindDirection,WindDirectionDegrees,WindSpeedMPH,WindSpeedGustMPH,Humidity,HourlyPrecipIn,Conditions,Clouds,dailyrainin,SolarRadiationWatts/m^2,SoftwareType,DateUTC
2013-03-01 00:04:00,35.7,27.0,29.82,WNW,300,0.0,2.0,72,0.00,,,0.00,0,weatherlink.com 1.10,2013-03-01 05:04:00,
2013-03-01 00:19:00,36.2,27.0,29.82,NW,316,0.0,2.0,70,0.00,,,0.00,0,weatherlink.com 1.10,2013-03-01 05:19:00,
2013-03-01 00:34:00,35.9,27.0,29.82,WSW,249,0.0,3.0,71,0.00,,,0.00,0,weatherlink.com 1.10,2013-03-01 05:34:00,
2013-03-01 00:49:00,35.7,27.0,29.83,WSW,249,0.0,1.0,71,0.00,,,0.00,0,weatherlink.com 1.10,2013-03-01 05:49:00,
2013-03-01 01:04:00,35.0,27.0,29.83,WSW,249,0.0,1.0,72,0.00,,,0.00,0,weatherlink.com 1.10,2013-03-01 06:04:00,
2013-03-01 01:19:00,35.5,27.0,29.84,NNW,327,0.0,3.0,72,0.00,,,0.00,0,weatherlink.com 1.10,2013-03-01 06:19:00,
2013-03-01 01:34:00,35.3,27.0,29.83,WSW,257,0.0,2.0,72,0.00,,,0.00,0,weatherlink.com 1.10,2013-03-01 06:34:00,
2013-03-01 01:49:00,35.5,27.0,29.84,West,262,0.0,2.0,72,0.00,,,0.00,0,weatherlink.com 1.10,2013-03-01 06:49:00,
2013-03-01 02:04:00,35.3,27.0,29.83,SW,229,1.0,3.0,72,0.00,,,0.00,0,weatherlink.com 1.10,2013-03-01 07:04:00,
2013-03-01 02:19:00,35.3,27.0,29.83,SW,236,0.0,1.0,72,0.00,,,0.00,0,weatherlink.com 1.10,2013-03-01 07:19:00,
2013-03-01 02:34:00,34.7,27.0,29.83,SW,236,0.0,1.0,73,0.00,,,0.00,0,weatherlink.com 1.10,2013-03-01 07:34:00,
2013-03-01 02:49:00,34.4,27.0,29.82,WSW,251,0.0,3.0,74,0.00,,,0.00,0,weatherlink.com 1.10,2013-03-01 07:49:00,
2013-03-01 03:04:00,33.5,26.0,29.82,WSW,251,0.0,2.0,75,0.00,,,0.00,0,weatherlink.com 1.10,2013-03-01 08:04:00,
2013-03-01 03:19:00,32.3,26.0,29.82,WSW,251,0.0,0.0,78,0.00,,,0.00,0,weatherlink.com 1.10,2013-03-01 08:19:00,
2013-03-01 03:34:00,31.7,27.0,29.82,WSW,250,0.0,1.0,81,0.00,,,0.00,0,weatherlink.com 1.10,2013-03-01 08:34:00,
2013-03-01 03:49:00,31.6,26.0,29.82,WSW,250,0.0,0.0,81,0.00,,,0.00,0,weatherlink.com 1.10,2013-03-01 08:49:00,
2013-03-01 04:04:00,31.7,27.0,29.82,WSW,249,0.0,1.0,82,0.00,,,0.00,0,weatherlink.com 1.10,2013-03-01 09:04:00,
2013-03-01 04:19:00,31.5,27.0,29.83,WSW,249,0.0,1.0,82,0.00,,,0.00,0,weatherlink.com 1.10,2013-03-01 09:19:00,
2013-03-01 04:34:00,31.2,27.0,29.83,WSW,249,0.0,1.0,83,0.00,,,0.00,0,weatherlink.com 1.10,2013-03-01 09:34:00,
2013-03-01 04:49:00,31.1,27.0,29.83,WSW,249,0.0,1.0,83,0.00,,,0.00,0,weatherlink.com 1.10,2013-03-01 09:49:00,
2013-03-01 05:04:00,31.0,26.0,29.84,WSW,249,0.0,0.0,83,0.00,,,0.00,0,weatherlink.com 1.10,2013-03-01 10:04:00,
2013-03-01 05:19:00,30.6,26.0,29.83,WSW,249,0.0,0.0,84,0.00,,,0.00,0,weatherlink.com 1.10,2013-03-01 10:19:00,
2013-03-01 05:34:00,30.2,26.0,29.84,WSW,249,0.0,0.0,85,0.00,,,0.00,0,weatherlink.com 1.10,2013-03-01 10:34:00,
2013-03-01 05:49:00,30.0,26.0,29.84,WSW,249,0.0,0.0,86,0.00,,,0.00,0,weatherlink.com 1.10,2013-03-01 10:49:00,
2013-03-01 06:04:00,29.9,26.0,29.84,WSW,249,0.0,0.0,85,0.00,,,0.00,0,weatherlink.com 1.10,2013-03-01 11:04:00,
2013-03-01 06:19:00,29.4,26.0,29.84,WSW,249,0.0,0.0,86,0.00,,,0.00,0,weatherlink.com 1.10,2013-03-01 11:19:00,
2013-03-01 06:34:00,29.0,26.0,29.84,WSW,249,0.0,0.0,87,0.00,,,0.00,0,weatherlink.com 1.10,2013-03-01 11:34:00,
2013-03-01 06:49:00,28.8,26.0,29.85,WSW,249,0.0,0.0,88,0.00,,,0.00,5,weatherlink.com 1.10,2013-03-01 11:49:00,
2013-03-01 07:04:00,29.2,26.0,29.85,WSW,249,0.0,0.0,88,0.00,,,0.00,14,weatherlink.com 1.10,2013-03-01 12:04:00,
2013-03-01 07:19:00,29.1,26.0,29.86,WSW,249,0.0,0.0,88,0.00,,,0.00,23,weatherlink.com 1.10,2013-03-01 12:19:00,
2013-03-01 07:34:00,29.8,27.0,29.86,WSW,249,0.0,0.0,88,0.00,,,0.00,28,weatherlink.com 1.10,2013-03-01 12:34:00,
2013-03-01 07:49:00,31.5,28.0,29.86,WSW,249,0.0,0.0,88,0.00,,,0.00,188,weatherlink.com 1.10,2013-03-01 12:49:00,
2013-03-01 08:04:00,34.4,29.0,29.86,West,277,0.0,2.0,82,0.00,,,0.00,229,weatherlink.com 1.10,2013-03-01 13:04:00,
2013-03-01 08:19:00,37.2,30.0,29.86,West,268,0.0,4.0,76,0.00,,,0.00,281,weatherlink.com 1.10,2013-03-01 13:19:00,
2013-03-01 08:34:00,39.4,31.0,29.86,West,267,0.0,3.0,71,0.00,,,0.00,330,weatherlink.com 1.10,2013-03-01 13:34:00,
2013-03-01 08:50:00,41.9,32.0,29.86,SW,230,3.0,5.0,68,0.00,,,0.00,381,weatherlink.com 1.10,2013-03-01 13:50:00,
2013-03-01 09:05:00,43.2,31.0,29.86,NNW,331,0.0,6.0,62,0.00,,,0.00,429,weatherlink.com 1.10,2013-03-01 14:05:00,
2013-03-01 09:20:00,44.9,32.0,29.86,West,275,0.0,10.0,61,0.00,,,0.00,473,weatherlink.com 1.10,2013-03-01 14:20:00,
2013-03-01 09:35:00,44.6,29.0,29.86,NW,320,9.0,14.0,55,0.00,,,0.00,519,weatherlink.com 1.10,2013-03-01 14:35:00,
2013-03-01 09:50:00,45.9,29.0,29.86,WNW,297,7.0,11.0,53,0.00,,,0.00,559,weatherlink.com 1.10,2013-03-01 14:50:00,
2013-03-01 10:05:00,47.0,30.0,29.86,North,349,7.0,8.0,53,0.00,,,0.00,693,weatherlink.com 1.10,2013-03-01 15:05:00,
2013-03-01 10:20:00,45.9,29.0,29.86,NW,315,2.0,9.0,52,0.00,,,0.00,269,weatherlink.com 1.10,2013-03-01 15:20:00,
2013-03-01 10:35:00,46.6,29.0,29.86,SW,228,3.0,8.0,51,0.00,,,0.00,821,weatherlink.com 1.10,2013-03-01 15:35:00,
2013-03-01 10:50:00,47.9,29.0,29.85,NNW,332,0.0,7.0,48,0.00,,,0.00,290,weatherlink.com 1.10,2013-03-01 15:50:00,
2013-03-01 11:05:00,46.2,29.0,29.85,NW,326,3.0,10.0,51,0.00,,,0.00,218,weatherlink.com 1.10,2013-03-01 16:05:00,
2013-03-01 11:20:00,48.0,29.0,29.85,NW,325,3.0,8.0,49,0.00,,,0.00,364,weatherlink.com 1.10,2013-03-01 16:20:00,
2013-03-01 11:35:00,47.6,29.0,29.85,NNE,21,2.0,7.0,49,0.00,,,0.00,292,weatherlink.com 1.10,2013-03-01 16:35:00,
2013-03-01 11:50:00,47.4,29.0,29.85,West,275,4.0,7.0,49,0.00,,,0.00,214,weatherlink.com 1.10,2013-03-01 16:50:00,
2013-03-01 12:05:00,46.8,29.0,29.84,West,277,1.0,9.0,51,0.00,,,0.00,278,weatherlink.com 1.10,2013-03-01 17:05:00,
2013-03-01 12:20:00,46.6,29.0,29.84,WNW,302,2.0,8.0,51,0.00,,,0.00,279,weatherlink.com 1.10,2013-03-01 17:20:00,
2013-03-01 12:35:00,46.9,29.0,29.84,SW,228,4.0,7.0,51,0.00,,,0.00,272,weatherlink.com 1.10,2013-03-01 17:35:00,
2013-03-01 12:50:00,46.5,29.0,29.84,NNW,331,3.0,9.0,50,0.00,,,0.00,267,weatherlink.com 1.10,2013-03-01 17:50:00,
2013-03-01 13:05:00,46.4,29.0,29.83,NNW,338,3.0,8.0,51,0.00,,,0.00,401,weatherlink.com 1.10,2013-03-01 18:05:00,
2013-03-01 13:20:00,46.9,29.0,29.83,WNW,297,1.0,11.0,50,0.00,,,0.00,339,weatherlink.com 1.10,2013-03-01 18:20:00,
2013-03-01 13:36:00,45.9,29.0,29.83,WNW,295,1.0,14.0,51,0.00,,,0.00,246,weatherlink.com 1.10,2013-03-01 18:36:00,
2013-03-01 13:51:00,46.0,29.0,29.83,WNW,298,3.0,9.0,52,0.00,,,0.00,181,weatherlink.com 1.10,2013-03-01 18:51:00,
2013-03-01 14:21:00,45.3,29.0,29.82,West,272,4.0,11.0,54,0.00,,,0.00,165,weatherlink.com 1.10,2013-03-01 19:21:00,
2013-03-01 14:36:00,45.3,30.0,29.82,NW,315,0.0,6.0,55,0.00,,,0.00,146,weatherlink.com 1.10,2013-03-01 19:36:00,
2013-03-01 14:51:00,45.0,30.0,29.82,SW,236,3.0,6.0,56,0.00,,,0.00,151,weatherlink.com 1.10,2013-03-01 19:51:00,
2013-03-01 15:06:00,45.0,30.0,29.82,NW,326,0.0,8.0,56,0.00,,,0.00,162,weatherlink.com 1.10,2013-03-01 20:06:00,
2013-03-01 15:21:00,45.2,30.0,29.82,WSW,244,0.0,7.0,55,0.00,,,0.00,151,weatherlink.com 1.10,2013-03-01 20:21:00,
2013-03-01 15:36:00,45.0,30.0,29.82,West,269,0.0,7.0,56,0.00,,,0.00,83,weatherlink.com 1.10,2013-03-01 20:36:00,
2013-03-01 15:51:00,44.5,29.0,29.82,NW,321,5.0,7.0,56,0.00,,,0.00,67,weatherlink.com 1.10,2013-03-01 20:51:00,
2013-03-01 16:06:00,44.3,29.0,29.82,WNW,296,0.0,6.0,56,0.00,,,0.00,49,weatherlink.com 1.10,2013-03-01 21:06:00,
2013-03-01 16:21:00,44.2,30.0,29.83,NW,304,1.0,5.0,57,0.00,,,0.00,53,weatherlink.com 1.10,2013-03-01 21:21:00,
2013-03-01 16:36:00,44.2,30.0,29.83,NW,315,2.0,6.0,57,0.00,,,0.00,47,weatherlink.com 1.10,2013-03-01 21:36:00,
2013-03-01 16:51:00,44.1,29.0,29.83,NW,318,1.0,12.0,56,0.00,,,0.00,28,weatherlink.com 1.10,2013-03-01 21:51:00,
2013-03-01 17:06:00,44.0,29.0,29.83,NW,315,1.0,5.0,57,0.00,,,0.00,25,weatherlink.com 1.10,2013-03-01 22:06:00,
2013-03-01 17:21:00,43.8,30.0,29.84,NW,307,0.0,2.0,58,0.00,,,0.00,18,weatherlink.com 1.10,2013-03-01 22:21:00,
2013-03-01 17:36:00,43.6,30.0,29.84,NW,309,0.0,2.0,59,0.00,,,0.00,12,weatherlink.com 1.10,2013-03-01 22:36:00,
2013-03-01 17:51:00,43.3,30.0,29.84,NW,309,0.0,2.0,60,0.00,,,0.00,0,weatherlink.com 1.10,2013-03-01 22:51:00,
2013-03-01 18:06:00,42.9,30.0,29.85,NW,309,0.0,0.0,61,0.00,,,0.00,0,weatherlink.com 1.10,2013-03-01 23:06:00,
2013-03-01 18:21:00,42.6,31.0,29.86,NW,309,0.0,0.0,65,0.00,,,0.00,0,weatherlink.com 1.10,2013-03-01 23:21:00,
2013-03-01 18:36:00,42.0,31.0,29.86,NW,309,0.0,0.0,66,0.00,,,0.00,0,weatherlink.com 1.10,2013-03-01 23:36:00,
2013-03-01 18:51:00,41.4,31.0,29.86,NW,309,0.0,0.0,67,0.00,,,0.00,0,weatherlink.com 1.10,2013-03-01 23:51:00,
2013-03-01 19:06:00,41.1,32.0,29.87,NW,309,0.0,1.0,69,0.00,,,0.00,0,weatherlink.com 1.10,2013-03-02 00:06:00,
2013-03-01 19:21:00,41.0,32.0,29.88,NW,309,0.0,0.0,69,0.00,,,0.00,0,weatherlink.com 1.10,2013-03-02 00:21:00,
2013-03-01 19:36:00,41.1,31.0,29.88,NW,309,0.0,2.0,68,0.00,,,0.00,0,weatherlink.com 1.10,2013-03-02 00:36:00,
2013-03-01 19:51:00,41.0,31.0,29.88,NW,309,0.0,0.0,68,0.00,,,0.00,0,weatherlink.com 1.10,2013-03-02 00:51:00,
2013-03-01 20:06:00,40.9,31.0,29.88,NW,309,0.0,0.0,67,0.00,,,0.00,0,weatherlink.com 1.10,2013-03-02 01:06:00,
2013-03-01 20:21:00,40.8,31.0,29.88,NW,309,0.0,1.0,67,0.00,,,0.00,0,weatherlink.com 1.10,2013-03-02 01:21:00,
2013-03-01 20:36:00,40.9,31.0,29.88,NNW,331,0.0,2.0,67,0.00,,,0.00,0,weatherlink.com 1.10,2013-03-02 01:36:00,
2013-03-01 20:51:00,41.1,30.0,29.89,NW,311,0.0,3.0,65,0.00,,,0.00,0,weatherlink.com 1.10,2013-03-02 01:51:00,
2013-03-01 21:06:00,41.1,30.0,29.89,NW,311,0.0,1.0,64,0.00,,,0.00,0,weatherlink.com 1.10,2013-03-02 02:06:00,
2013-03-01 21:21:00,40.9,29.0,29.89,NW,311,0.0,3.0,63,0.00,,,0.00,0,weatherlink.com 1.10,2013-03-02 02:21:00,
2013-03-01 21:36:00,41.1,29.0,29.89,WNW,300,1.0,6.0,62,0.00,,,0.00,0,weatherlink.com 1.10,2013-03-02 02:36:00,
2013-03-01 21:51:00,41.1,28.0,29.89,WNW,294,0.0,5.0,61,0.00,,,0.00,0,weatherlink.com 1.10,2013-03-02 02:51:00,
2013-03-01 22:06:00,40.8,29.0,29.89,NW,308,0.0,4.0,62,0.00,,,0.00,0,weatherlink.com 1.10,2013-03-02 03:06:00,
2013-03-01 22:21:00,40.7,28.0,29.89,NW,321,0.0,5.0,60,0.00,,,0.00,0,weatherlink.com 1.10,2013-03-02 03:21:00,
2013-03-01 22:36:00,40.4,28.0,29.89,NW,321,0.0,2.0,61,0.00,,,0.00,0,weatherlink.com 1.10,2013-03-02 03:36:00,
2013-03-01 22:51:00,40.0,29.0,29.89,NW,321,0.0,1.0,64,0.00,,,0.00,0,weatherlink.com 1.10,2013-03-02 03:51:00,
2013-03-01 23:06:00,39.5,28.0,29.89,North,5,2.0,5.0,63,0.00,,,0.00,0,weatherlink.com 1.10,2013-03-02 04:06:00,
2013-03-01 23:21:00,39.3,27.0,29.89,NW,323,0.0,4.0,62,0.00,,,0.00,0,weatherlink.com 1.10,2013-03-02 04:21:00,
2013-03-01 23:36:00,38.9,27.0,29.89,NW,323,0.0,3.0,63,0.00,,,0.00,0,weatherlink.com 1.10,2013-03-02 04:36:00,
2013-03-01 23:51:00,38.7,27.0,29.89,NW,323,0.0,3.0,64,0.00,,,0.00,0,weatherlink.com 1.10,2013-03-02 04:51:00,